Time,TemperatureF,DewpointF,PressureIn,WindDirection,WindDirectionDegrees,WindSpeedMPH,WindSpeedGustMPH,Humidity,HourlyPrecipIn,Conditions,Clouds,dailyrainin,SolarRadiationWatts/m^2,SoftwareType,DateUTC
2013-05-09 00:02:00,64.0,58.0,-100.00,NNE,20,6.0,11.0,81,0.00,,,0.00,0.000000,,2013-05-09 10:02:00,
2013-05-09 00:12:00,64.0,58.0,-100.00,NNE,20,6.0,11.0,81,0.00,,,0.00,0.000000,,2013-05-09 10:12:00,
2013-05-09 00:22:00,64.0,58.0,-100.00,NNE,20,6.0,11.0,81,0.00,,,0.00,0.000000,,2013-05-09 10:22:00,
2013-05-09 00:33:00,64.0,58.0,-100.00,NNE,20,6.0,11.0,81,0.00,,,0.00,0.000000,,2013-05-09 10:33:00,
2013-05-09 01:02:00,64.0,58.0,-100.00,NNE,24,7.0,10.0,81,0.00,,,0.00,0.000000,,2013-05-09 11:02:00,
2013-05-09 01:12:00,64.0,58.0,-100.00,NNE,24,7.0,10.0,81,0.00,,,0.00,0.000000,,2013-05-09 11:12:00,
2013-05-09 01:22:00,64.0,58.0,-100.00,NNE,24,7.0,10.0,81,0.00,,,0.00,0.000000,,2013-05-09 11:22:00,
2013-05-09 01:32:00,64.0,58.0,-100.00,NNE,24,7.0,10.0,81,0.00,,,0.00,0.000000,,2013-05-09 11:32:00,
2013-05-09 02:01:00,66.0,62.0,-100.00,NNE,22,5.0,9.0,88,0.00,,,0.00,0.000000,,2013-05-09 12:01:00,
2013-05-09 02:11:00,66.0,62.0,-100.00,NNE,22,5.0,9.0,88,0.00,,,0.00,0.000000,,2013-05-09 12:11:00,
2013-05-09 02:22:00,66.0,62.0,-100.00,NNE,22,5.0,9.0,88,0.00,,,0.00,0.000000,,2013-05-09 12:22:00,
2013-05-09 02:31:00,66.0,62.0,-100.00,NNE,22,5.0,9.0,88,0.00,,,0.00,0.000000,,2013-05-09 12:31:00,
2013-05-09 03:01:00,65.0,62.0,-100.00,NNE,25,5.0,8.0,90,0.00,,,0.00,0.000000,,2013-05-09 13:01:00,
2013-05-09 03:12:00,65.0,62.0,-100.00,NNE,25,5.0,8.0,90,0.00,,,0.00,0.000000,,2013-05-09 13:12:00,
2013-05-09 03:21:00,65.0,62.0,-100.00,NNE,25,5.0,8.0,90,0.00,,,0.00,0.000000,,2013-05-09 13:21:00,
2013-05-09 03:31:00,65.0,62.0,-100.00,NNE,25,5.0,8.0,90,0.00,,,0.00,0.000000,,2013-05-09 13:31:00,
2013-05-09 04:01:00,66.0,63.0,-100.00,NNE,18,5.0,8.0,90,0.00,,,-99.99,0.000000,,2013-05-09 14:01:00,
2013-05-09 04:11:00,66.0,63.0,-100.00,NNE,18,5.0,8.0,90,0.00,,,-99.99,0.000000,,2013-05-09 14:11:00,
2013-05-09 04:21:00,66.0,63.0,-100.00,NNE,18,5.0,8.0,90,0.00,,,-99.99,0.000000,,2013-05-09 14:21:00,
2013-05-09 04:32:00,66.0,63.0,-100.00,NNE,18,5.0,8.0,90,0.00,,,-99.99,0.000000,,2013-05-09 14:32:00,
2013-05-09 05:01:00,67.0,63.0,-100.00,NNE,12,4.0,8.0,87,0.00,,,0.00,0.000000,,2013-05-09 15:01:00,
2013-05-09 05:11:00,67.0,63.0,-100.00,NNE,12,4.0,8.0,87,0.00,,,0.00,0.000000,,2013-05-09 15:11:00,
2013-05-09 05:21:00,67.0,63.0,-100.00,NNE,12,4.0,8.0,87,0.00,,,0.00,0.000000,,2013-05-09 15:21:00,
2013-05-09 05:33:00,67.0,63.0,-100.00,NNE,12,4.0,8.0,87,0.00,,,0.00,0.000000,,2013-05-09 15:33:00,
2013-05-09 06:03:00,66.0,62.0,-100.00,NNE,25,3.0,7.0,86,0.00,,,0.00,0.000000,,2013-05-09 16:03:00,
2013-05-09 06:12:00,66.0,62.0,-100.00,NNE,25,3.0,7.0,86,0.00,,,0.00,0.000000,,2013-05-09 16:12:00,
2013-05-09 06:22:00,66.0,62.0,-100.00,NNE,25,3.0,7.0,86,0.00,,,0.00,0.000000,,2013-05-09 16:22:00,
2013-05-09 06:32:00,66.0,62.0,-100.00,NNE,25,3.0,7.0,86,0.00,,,0.00,0.000000,,2013-05-09 16:32:00,
2013-05-09 07:02:00,65.0,62.0,-100.00,NNE,27,4.0,7.0,89,0.00,,,0.00,0.000000,,2013-05-09 17:02:00,
2013-05-09 07:12:00,65.0,62.0,-100.00,NNE,27,4.0,7.0,89,0.00,,,0.00,0.000000,,2013-05-09 17:12:00,
2013-05-09 07:21:00,65.0,62.0,-100.00,NNE,27,4.0,7.0,89,0.00,,,0.00,0.000000,,2013-05-09 17:21:00,
2013-05-09 07:32:00,65.0,62.0,-100.00,NNE,27,4.0,7.0,89,0.00,,,0.00,0.000000,,2013-05-09 17:32:00,
2013-05-09 08:01:00,68.0,63.0,-100.00,NNE,25,4.0,6.0,85,0.00,,,0.00,13.000000,,2013-05-09 18:01:00,
2013-05-09 08:12:00,68.0,63.0,-100.00,NNE,25,4.0,6.0,85,0.00,,,0.00,13.000000,,2013-05-09 18:12:00,
2013-05-09 08:21:00,68.0,63.0,-100.00,NNE,25,4.0,6.0,85,0.00,,,0.00,13.000000,,2013-05-09 18:21:00,
2013-05-09 08:31:00,68.0,63.0,-100.00,NNE,25,4.0,6.0,85,0.00,,,0.00,13.000000,,2013-05-09 18:31:00,
2013-05-09 09:01:00,78.0,63.0,-100.00,SSE,151,4.0,7.0,61,0.00,,,0.00,103.000000,,2013-05-09 19:01:00,
2013-05-09 09:11:00,78.0,63.0,-100.00,SSE,151,4.0,7.0,61,0.00,,,0.00,103.000000,,2013-05-09 19:11:00,
2013-05-09 09:21:00,78.0,63.0,-100.00,SSE,151,4.0,7.0,61,0.00,,,0.00,103.000000,,2013-05-09 19:21:00,
2013-05-09 09:31:00,78.0,63.0,-100.00,SSE,151,4.0,7.0,61,0.00,,,0.00,103.000000,,2013-05-09 19:31:00,
2013-05-09 10:01:00,83.0,65.0,-100.00,SE,142,4.0,9.0,54,0.00,,,0.00,512.000000,,2013-05-09 20:01:00,
2013-05-09 10:11:00,83.0,65.0,-100.00,SE,142,4.0,9.0,54,0.00,,,0.00,512.000000,,2013-05-09 20:11:00,
2013-05-09 10:21:00,83.0,65.0,-100.00,SE,142,4.0,9.0,54,0.00,,,0.00,512.000000,,2013-05-09 20:21:00,
2013-05-09 10:32:00,83.0,65.0,-100.00,SE,142,4.0,9.0,54,0.00,,,0.00,512.000000,,2013-05-09 20:32:00,
2013-05-09 11:11:00,83.0,65.0,-100.00,SSW,194,7.0,13.0,54,0.00,,,0.00,848.000000,,2013-05-09 21:11:00,
2013-05-09 11:22:00,83.0,65.0,-100.00,SSW,194,7.0,13.0,54,0.00,,,0.00,848.000000,,2013-05-09 21:22:00,
2013-05-09 11:32:00,83.0,65.0,-100.00,SSW,194,7.0,13.0,54,0.00,,,0.00,848.000000,,2013-05-09 21:32:00,
2013-05-09 12:03:00,82.0,63.0,-100.00,SSW,197,6.0,14.0,53,0.00,,,0.00,1151.000000,,2013-05-09 22:03:00,
2013-05-09 12:12:00,82.0,63.0,-100.00,SSW,197,6.0,14.0,53,0.00,,,0.00,1151.000000,,2013-05-09 22:12:00,
2013-05-09 12:22:00,82.0,63.0,-100.00,SSW,197,6.0,14.0,53,0.00,,,0.00,1151.000000,,2013-05-09 22:22:00,
2013-05-09 12:32:00,82.0,63.0,-100.00,SSW,197,6.0,14.0,53,0.00,,,0.00,1151.000000,,2013-05-09 22:32:00,
2013-05-09 13:02:00,86.0,66.0,-100.00,SSE,160,6.0,15.0,51,0.00,,,0.00,1248.000000,,2013-05-09 23:02:00,
2013-05-09 13:12:00,86.0,66.0,-100.00,SSE,160,6.0,15.0,51,0.00,,,0.00,1248.000000,,2013-05-09 23:12:00,
2013-05-09 13:21:00,86.0,66.0,-100.00,SSE,160,6.0,15.0,51,0.00,,,0.00,1248.000000,,2013-05-09 23:21:00,
2013-05-09 13:32:00,86.0,66.0,-100.00,SSE,160,6.0,15.0,51,0.00,,,0.00,1248.000000,,2013-05-09 23:32:00,
2013-05-09 14:01:00,85.0,65.0,-100.00,SSW,195,7.0,15.0,51,0.00,,,0.00,1269.000000,,2013-05-10 00:01:00,
2013-05-09 14:11:00,85.0,65.0,-100.00,SSW,195,7.0,15.0,51,0.00,,,0.00,1269.000000,,2013-05-10 00:11:00,
2013-05-09 14:22:00,85.0,65.0,-100.00,SSW,195,7.0,15.0,51,0.00,,,0.00,1269.000000,,2013-05-10 00:22:00,
2013-05-09 14:32:00,85.0,65.0,-100.00,SSW,195,7.0,15.0,51,0.00,,,0.00,1269.000000,,2013-05-10 00:32:00,
2013-05-09 15:01:00,85.0,68.0,-100.00,South,171,5.0,13.0,56,0.00,,,0.00,1335.000000,,2013-05-10 01:01:00,
2013-05-09 15:11:00,85.0,68.0,-100.00,South,171,5.0,13.0,56,0.00,,,0.00,1335.000000,,2013-05-10 01:11:00,
2013-05-09 15:21:00,85.0,68.0,-100.00,South,171,5.0,13.0,56,0.00,,,0.00,1335.000000,,2013-05-10 01:21:00,
2013-05-09 15:31:00,85.0,68.0,-100.00,South,171,5.0,13.0,56,0.00,,,0.00,1335.000000,,2013-05-10 01:31:00,
2013-05-09 15:52:00,79.0,64.0,-100.00,South,191,4.0,10.0,60,0.00,,,0.00,871.000000,,2013-05-10 01:52:00,
2013-05-09 16:01:00,79.0,64.0,-100.00,South,191,4.0,10.0,60,0.00,,,0.00,871.000000,,2013-05-10 02:01:00,
2013-05-09 16:11:00,79.0,64.0,-100.00,South,191,4.0,10.0,60,0.00,,,0.00,871.000000,,2013-05-10 02:11:00,
2013-05-09 16:21:00,79.0,64.0,-100.00,South,191,4.0,10.0,60,0.00,,,0.00,871.000000,,2013-05-10 02:21:00,
2013-05-09 16:31:00,79.0,64.0,-100.00,South,191,4.0,10.0,60,0.00,,,0.00,871.000000,,2013-05-10 02:31:00,
2013-05-09 17:01:00,79.0,66.0,-100.00,SE,142,4.0,9.0,65,0.00,,,0.00,407.000000,,2013-05-10 03:01:00,
2013-05-09 17:11:00,79.0,66.0,-100.00,SE,142,4.0,9.0,65,0.00,,,0.00,407.000000,,2013-05-10 03:11:00,
2013-05-09 17:21:00,79.0,66.0,-100.00,SE,142,4.0,9.0,65,0.00,,,0.00,407.000000,,2013-05-10 03:21:00,
2013-05-09 17:32:00,79.0,66.0,-100.00,SE,142,4.0,9.0,65,0.00,,,0.00,407.000000,,2013-05-10 03:32:00,
2013-05-09 18:03:00,78.0,66.0,-100.00,ENE,72,2.0,7.0,67,0.00,,,0.00,154.000000,,2013-05-10 04:03:00,
2013-05-09 18:12:00,78.0,66.0,-100.00,ENE,72,2.0,7.0,67,0.00,,,0.00,154.000000,,2013-05-10 04:12:00,
2013-05-09 18:22:00,78.0,66.0,-100.00,ENE,72,2.0,7.0,67,0.00,,,0.00,154.000000,,2013-05-10 04:22:00,
2013-05-09 18:33:00,78.0,66.0,-100.00,ENE,72,2.0,7.0,67,0.00,,,0.00,154.000000,,2013-05-10 04:33:00,
2013-05-09 19:02:00,75.0,65.0,-100.00,NNW,346,4.0,8.0,71,0.00,,,0.00,123.000000,,2013-05-10 05:02:00,
2013-05-09 19:12:00,75.0,65.0,-100.00,NNW,346,4.0,8.0,71,0.00,,,0.00,123.000000,,2013-05-10 05:12:00,
2013-05-09 19:21:00,75.0,65.0,-100.00,NNW,346,4.0,8.0,71,0.00,,,0.00,123.000000,,2013-05-10 05:21:00,
2013-05-09 19:32:00,75.0,65.0,-100.00,NNW,346,4.0,8.0,71,0.00,,,0.00,123.000000,,2013-05-10 05:32:00,
2013-05-09 20:01:00,73.0,65.0,-100.00,North,6,4.0,13.0,75,0.00,,,0.00,46.000000,,2013-05-10 06:01:00,
2013-05-09 20:12:00,73.0,65.0,-100.00,North,6,4.0,13.0,75,0.00,,,0.00,46.000000,,2013-05-10 06:12:00,
2013-05-09 20:21:00,73.0,65.0,-100.00,North,6,4.0,13.0,75,0.00,,,0.00,46.000000,,2013-05-10 06:21:00,
2013-05-09 20:32:00,73.0,65.0,-100.00,North,6,4.0,13.0,75,0.00,,,0.00,46.000000,,2013-05-10 06:32:00,
2013-05-09 21:01:00,73.0,65.0,-100.00,NNW,344,3.0,9.0,76,0.00,,,0.00,4.000000,,2013-05-10 07:01:00,
2013-05-09 21:11:00,73.0,65.0,-100.00,NNW,344,3.0,9.0,76,0.00,,,0.00,4.000000,,2013-05-10 07:11:00,
2013-05-09 21:22:00,73.0,65.0,-100.00,NNW,344,3.0,9.0,76,0.00,,,0.00,4.000000,,2013-05-10 07:22:00,
2013-05-09 21:31:00,73.0,65.0,-100.00,NNW,344,3.0,9.0,76,0.00,,,0.00,4.000000,,2013-05-10 07:31:00,
2013-05-09 22:02:00,71.0,62.0,-100.00,NNW,347,3.0,10.0,74,0.00,,,0.00,0.000000,,2013-05-10 08:02:00,
2013-05-09 22:12:00,71.0,62.0,-100.00,NNW,347,3.0,10.0,74,0.00,,,0.00,0.000000,,2013-05-10 08:12:00,
2013-05-09 22:21:00,71.0,62.0,-100.00,NNW,347,3.0,10.0,74,0.00,,,0.00,0.000000,,2013-05-10 08:21:00,
2013-05-09 22:32:00,71.0,62.0,-100.00,NNW,347,3.0,10.0,74,0.00,,,0.00,0.000000,,2013-05-10 08:32:00,
2013-05-09 23:01:00,71.0,65.0,-100.00,NNE,22,3.0,8.0,81,0.00,,,0.00,0.000000,,2013-05-10 09:01:00,
2013-05-09 23:11:00,71.0,65.0,-100.00,NNE,22,3.0,8.0,81,0.00,,,0.00,0.000000,,2013-05-10 09:11:00,
2013-05-09 23:21:00,71.0,65.0,-100.00,NNE,22,3.0,8.0,81,0.00,,,0.00,0.000000,,2013-05-10 09:21:00,
2013-05-09 23:32:00,71.0,65.0,-100.00,NNE,22,3.0,8.0,81,0.00,,,0.00,0.000000,,2013-05-10 09:32:00,